sensor_id;sensor_type;location;lat;lon;timestamp;temperature;humidity
29777;DHT22;16677;52.224;7.484;2023-09-18T00:03:13;19.40;1.00
29777;DHT22;16677;52.224;7.484;2023-09-18T00:05:44;19.40;1.00
29777;DHT22;16677;52.224;7.484;2023-09-18T00:08:18;19.30;1.00
29777;DHT22;16677;52.224;7.484;2023-09-18T00:11:17;19.40;1.00
29777;DHT22;16677;52.224;7.484;2023-09-18T00:13:45;19.40;99.90
29777;DHT22;16677;52.224;7.484;2023-09-18T00:16:21;19.30;99.90
29777;DHT22;16677;52.224;7.484;2023-09-18T00:19:13;19.30;99.90
29777;DHT22;16677;52.224;7.484;2023-09-18T00:21:40;19.30;99.90
29777;DHT22;16677;52.224;7.484;2023-09-18T00:24:08;19.30;99.90
29777;DHT22;16677;52.224;7.484;2023-09-18T00:26:44;19.30;99.90
29777;DHT22;16677;52.224;7.484;2023-09-18T00:29:14;19.30;99.90
29777;DHT22;16677;52.224;7.484;2023-09-18T00:31:41;19.30;99.90
29777;DHT22;16677;52.224;7.484;2023-09-18T00:34:12;19.30;99.90
29777;DHT22;16677;52.224;7.484;2023-09-18T00:36:39;19.30;99.90
29777;DHT22;16677;52.224;7.484;2023-09-18T00:39:06;19.30;99.90
29777;DHT22;16677;52.224;7.484;2023-09-18T00:41:36;19.30;99.90
29777;DHT22;16677;52.224;7.484;2023-09-18T00:44:03;19.30;99.90
29777;DHT22;16677;52.224;7.484;2023-09-18T00:46:35;19.30;99.90
29777;DHT22;16677;52.224;7.484;2023-09-18T00:49:06;19.30;99.90
29777;DHT22;16677;52.224;7.484;2023-09-18T00:51:40;19.30;99.90
29777;DHT22;16677;52.224;7.484;2023-09-18T00:54:07;19.40;99.90
29777;DHT22;16677;52.224;7.484;2023-09-18T00:56:37;19.30;99.90
29777;DHT22;16677;52.224;7.484;2023-09-18T00:59:13;19.30;58.30
29777;DHT22;16677;52.224;7.484;2023-09-18T01:01:44;19.40;95.60
29777;DHT22;16677;52.224;7.484;2023-09-18T01:04:16;19.30;1.00
29777;DHT22;16677;52.224;7.484;2023-09-18T01:06:46;19.30;1.00
29777;DHT22;16677;52.224;7.484;2023-09-18T01:09:18;19.40;1.00
29777;DHT22;16677;52.224;7.484;2023-09-18T01:14:41;19.30;1.00
29777;DHT22;16677;52.224;7.484;2023-09-18T01:17:28;19.30;1.00
29777;DHT22;16677;52.224;7.484;2023-09-18T01:20:11;19.30;1.00
29777;DHT22;16677;52.224;7.484;2023-09-18T01:23:11;19.30;1.00
29777;DHT22;16677;52.224;7.484;2023-09-18T01:26:02;19.30;1.00
29777;DHT22;16677;52.224;7.484;2023-09-18T01:28:35;19.10;1.00
29777;DHT22;16677;52.224;7.484;2023-09-18T01:31:23;19.30;1.00
29777;DHT22;16677;52.224;7.484;2023-09-18T01:34:47;19.30;1.00
29777;DHT22;16677;52.224;7.484;2023-09-18T01:37:53;19.30;1.00
29777;DHT22;16677;52.224;7.484;2023-09-18T01:40:24;19.30;1.00
29777;DHT22;16677;52.224;7.484;2023-09-18T01:43:01;19.30;1.00
29777;DHT22;16677;52.224;7.484;2023-09-18T01:46:00;19.20;1.00
29777;DHT22;16677;52.224;7.484;2023-09-18T01:48:27;19.30;99.90
29777;DHT22;16677;52.224;7.484;2023-09-18T01:51:33;19.30;99.90
29777;DHT22;16677;52.224;7.484;2023-09-18T01:54:07;19.30;1.00
29777;DHT22;16677;52.224;7.484;2023-09-18T01:57:09;19.30;1.00
29777;DHT22;16677;52.224;7.484;2023-09-18T01:59:47;19.30;20.50
29777;DHT22;16677;52.224;7.484;2023-09-18T02:02:30;19.30;27.60
29777;DHT22;16677;52.224;7.484;2023-09-18T02:05:19;19.40;1.00
29777;DHT22;16677;52.224;7.484;2023-09-18T02:07:49;19.50;1.00
29777;DHT22;16677;52.224;7.484;2023-09-18T02:10:22;19.50;1.00
29777;DHT22;16677;52.224;7.484;2023-09-18T02:12:50;19.50;1.00
29777;DHT22;16677;52.224;7.484;2023-09-18T02:15:17;19.50;1.00
29777;DHT22;16677;52.224;7.484;2023-09-18T02:17:55;19.50;99.90
29777;DHT22;16677;52.224;7.484;2023-09-18T02:20:29;19.50;99.90
29777;DHT22;16677;52.224;7.484;2023-09-18T02:22:57;19.50;99.90
29777;DHT22;16677;52.224;7.484;2023-09-18T02:25:34;19.40;99.90
29777;DHT22;16677;52.224;7.484;2023-09-18T02:28:15;19.50;99.90
29777;DHT22;16677;52.224;7.484;2023-09-18T02:30:43;19.50;99.90
29777;DHT22;16677;52.224;7.484;2023-09-18T02:33:14;19.50;99.90
29777;DHT22;16677;52.224;7.484;2023-09-18T02:35:42;19.40;83.40
29777;DHT22;16677;52.224;7.484;2023-09-18T02:38:11;19.50;48.50
29777;DHT22;16677;52.224;7.484;2023-09-18T02:40:39;19.40;1.00
29777;DHT22;16677;52.224;7.484;2023-09-18T02:43:06;19.50;1.00
29777;DHT22;16677;52.224;7.484;2023-09-18T02:45:33;19.40;1.00
29777;DHT22;16677;52.224;7.484;2023-09-18T02:48:00;19.50;1.00
29777;DHT22;16677;52.224;7.484;2023-09-18T02:50:27;19.50;1.00
29777;DHT22;16677;52.224;7.484;2023-09-18T02:52:54;19.40;99.90
29777;DHT22;16677;52.224;7.484;2023-09-18T02:55:21;19.50;99.90
29777;DHT22;16677;52.224;7.484;2023-09-18T02:58:02;19.40;99.90
29777;DHT22;16677;52.224;7.484;2023-09-18T03:00:30;19.40;99.90
29777;DHT22;16677;52.224;7.484;2023-09-18T03:03:10;19.40;99.90
29777;DHT22;16677;52.224;7.484;2023-09-18T03:05:38;19.30;99.90
29777;DHT22;16677;52.224;7.484;2023-09-18T03:08:05;19.30;1.00
29777;DHT22;16677;52.224;7.484;2023-09-18T03:10:37;19.40;1.00
29777;DHT22;16677;52.224;7.484;2023-09-18T03:13:04;19.40;99.90
29777;DHT22;16677;52.224;7.484;2023-09-18T03:15:32;19.40;99.90
29777;DHT22;16677;52.224;7.484;2023-09-18T03:18:01;19.40;99.90
29777;DHT22;16677;52.224;7.484;2023-09-18T03:20:29;19.40;99.90
29777;DHT22;16677;52.224;7.484;2023-09-18T03:22:58;19.40;99.90
29777;DHT22;16677;52.224;7.484;2023-09-18T03:25:26;19.50;99.90
29777;DHT22;16677;52.224;7.484;2023-09-18T03:27:54;19.40;99.90
29777;DHT22;16677;52.224;7.484;2023-09-18T03:30:23;19.40;99.90
29777;DHT22;16677;52.224;7.484;2023-09-18T03:32:51;19.40;99.90
29777;DHT22;16677;52.224;7.484;2023-09-18T03:35:18;19.40;99.90
29777;DHT22;16677;52.224;7.484;2023-09-18T03:37:51;19.40;64.40
29777;DHT22;16677;52.224;7.484;2023-09-18T03:40:19;19.40;90.90
29777;DHT22;16677;52.224;7.484;2023-09-18T03:42:47;19.40;1.00
29777;DHT22;16677;52.224;7.484;2023-09-18T03:45:14;19.40;1.00
29777;DHT22;16677;52.224;7.484;2023-09-18T03:47:41;19.40;1.00
29777;DHT22;16677;52.224;7.484;2023-09-18T03:50:09;19.40;1.00
29777;DHT22;16677;52.224;7.484;2023-09-18T03:52:37;19.40;1.00
29777;DHT22;16677;52.224;7.484;2023-09-18T03:55:08;19.50;1.00
29777;DHT22;16677;52.224;7.484;2023-09-18T03:57:35;19.50;1.00
29777;DHT22;16677;52.224;7.484;2023-09-18T04:00:04;19.50;1.00
29777;DHT22;16677;52.224;7.484;2023-09-18T04:02:34;19.50;1.00
29777;DHT22;16677;52.224;7.484;2023-09-18T04:05:01;19.50;1.00
29777;DHT22;16677;52.224;7.484;2023-09-18T04:07:29;19.50;1.00
29777;DHT22;16677;52.224;7.484;2023-09-18T04:09:56;19.50;1.00
29777;DHT22;16677;52.224;7.484;2023-09-18T04:12:23;19.60;99.90
29777;DHT22;16677;52.224;7.484;2023-09-18T04:14:50;19.70;99.90
29777;DHT22;16677;52.224;7.484;2023-09-18T04:17:17;19.70;99.90
29777;DHT22;16677;52.224;7.484;2023-09-18T04:19:45;19.70;99.90
29777;DHT22;16677;52.224;7.484;2023-09-18T04:22:12;19.70;99.90
29777;DHT22;16677;52.224;7.484;2023-09-18T04:24:39;19.70;99.90
29777;DHT22;16677;52.224;7.484;2023-09-18T04:27:07;19.70;99.90
29777;DHT22;16677;52.224;7.484;2023-09-18T04:29:34;19.80;99.90
29777;DHT22;16677;52.224;7.484;2023-09-18T04:32:03;19.80;99.90
29777;DHT22;16677;52.224;7.484;2023-09-18T04:34:31;19.80;99.90
29777;DHT22;16677;52.224;7.484;2023-09-18T04:36:58;19.70;99.90
29777;DHT22;16677;52.224;7.484;2023-09-18T04:39:25;19.70;99.90
29777;DHT22;16677;52.224;7.484;2023-09-18T04:41:52;19.70;99.90
29777;DHT22;16677;52.224;7.484;2023-09-18T04:44:19;19.70;99.90
29777;DHT22;16677;52.224;7.484;2023-09-18T04:46:46;19.70;99.90
29777;DHT22;16677;52.224;7.484;2023-09-18T04:49:13;19.80;99.90
29777;DHT22;16677;52.224;7.484;2023-09-18T04:51:41;19.70;99.90
29777;DHT22;16677;52.224;7.484;2023-09-18T04:54:08;19.80;99.90
29777;DHT22;16677;52.224;7.484;2023-09-18T04:56:35;19.80;99.90
29777;DHT22;16677;52.224;7.484;2023-09-18T04:59:04;19.70;99.90
29777;DHT22;16677;52.224;7.484;2023-09-18T05:01:31;19.70;99.90
29777;DHT22;16677;52.224;7.484;2023-09-18T05:03:59;19.80;56.50
29777;DHT22;16677;52.224;7.484;2023-09-18T05:06:27;19.80;31.90
29777;DHT22;16677;52.224;7.484;2023-09-18T05:08:54;19.90;31.80
29777;DHT22;16677;52.224;7.484;2023-09-18T05:11:22;19.90;5.70
29777;DHT22;16677;52.224;7.484;2023-09-18T05:13:49;19.80;99.90
29777;DHT22;16677;52.224;7.484;2023-09-18T05:16:16;19.60;99.90
29777;DHT22;16677;52.224;7.484;2023-09-18T05:18:44;19.70;99.90
29777;DHT22;16677;52.224;7.484;2023-09-18T05:21:11;19.70;99.90
29777;DHT22;16677;52.224;7.484;2023-09-18T05:23:38;19.70;1.00
29777;DHT22;16677;52.224;7.484;2023-09-18T05:26:05;19.60;1.00
29777;DHT22;16677;52.224;7.484;2023-09-18T05:28:32;19.60;1.00
29777;DHT22;16677;52.224;7.484;2023-09-18T05:30:59;19.40;99.90
29777;DHT22;16677;52.224;7.484;2023-09-18T05:33:27;19.40;1.00
29777;DHT22;16677;52.224;7.484;2023-09-18T05:35:54;19.40;99.90
29777;DHT22;16677;52.224;7.484;2023-09-18T05:38:21;19.40;99.90
29777;DHT22;16677;52.224;7.484;2023-09-18T05:40:48;19.30;1.00
29777;DHT22;16677;52.224;7.484;2023-09-18T05:43:15;19.20;99.90
29777;DHT22;16677;52.224;7.484;2023-09-18T05:45:42;19.30;1.00
29777;DHT22;16677;52.224;7.484;2023-09-18T05:48:10;19.30;1.00
29777;DHT22;16677;52.224;7.484;2023-09-18T05:50:38;19.30;1.00
29777;DHT22;16677;52.224;7.484;2023-09-18T05:53:07;19.20;1.00
29777;DHT22;16677;52.224;7.484;2023-09-18T05:55:35;19.30;99.90
29777;DHT22;16677;52.224;7.484;2023-09-18T05:58:02;19.30;99.90
29777;DHT22;16677;52.224;7.484;2023-09-18T06:00:31;19.40;1.00
29777;DHT22;16677;52.224;7.484;2023-09-18T06:02:59;19.30;1.00
29777;DHT22;16677;52.224;7.484;2023-09-18T06:05:26;19.30;1.00
29777;DHT22;16677;52.224;7.484;2023-09-18T06:07:53;19.30;29.60
29777;DHT22;16677;52.224;7.484;2023-09-18T06:10:21;19.30;1.00
29777;DHT22;16677;52.224;7.484;2023-09-18T06:12:48;19.40;1.00
29777;DHT22;16677;52.224;7.484;2023-09-18T06:15:15;19.50;1.00
29777;DHT22;16677;52.224;7.484;2023-09-18T06:17:43;19.50;1.00
29777;DHT22;16677;52.224;7.484;2023-09-18T06:20:11;19.50;99.90
29777;DHT22;16677;52.224;7.484;2023-09-18T06:22:42;19.60;99.90
29777;DHT22;16677;52.224;7.484;2023-09-18T06:25:10;19.70;1.00
29777;DHT22;16677;52.224;7.484;2023-09-18T06:27:37;19.80;99.90
29777;DHT22;16677;52.224;7.484;2023-09-18T06:30:05;19.70;95.50
29777;DHT22;16677;52.224;7.484;2023-09-18T06:32:33;19.80;39.80
29777;DHT22;16677;52.224;7.484;2023-09-18T06:35:01;19.80;99.90
29777;DHT22;16677;52.224;7.484;2023-09-18T06:37:28;19.80;99.90
29777;DHT22;16677;52.224;7.484;2023-09-18T06:39:55;19.80;1.00
29777;DHT22;16677;52.224;7.484;2023-09-18T06:42:23;19.90;1.00
29777;DHT22;16677;52.224;7.484;2023-09-18T06:44:52;19.90;37.10
29777;DHT22;16677;52.224;7.484;2023-09-18T06:47:20;19.90;1.00
29777;DHT22;16677;52.224;7.484;2023-09-18T06:49:48;19.90;54.80
29777;DHT22;16677;52.224;7.484;2023-09-18T06:52:18;20.10;1.00
29777;DHT22;16677;52.224;7.484;2023-09-18T06:54:45;20.10;99.90
29777;DHT22;16677;52.224;7.484;2023-09-18T06:57:13;20.20;1.00
29777;DHT22;16677;52.224;7.484;2023-09-18T06:59:40;20.20;1.00
29777;DHT22;16677;52.224;7.484;2023-09-18T07:02:07;20.30;1.00
29777;DHT22;16677;52.224;7.484;2023-09-18T07:04:34;20.30;1.00
29777;DHT22;16677;52.224;7.484;2023-09-18T07:07:01;20.30;99.90
29777;DHT22;16677;52.224;7.484;2023-09-18T07:09:31;20.30;99.90
29777;DHT22;16677;52.224;7.484;2023-09-18T07:12:02;20.30;1.00
29777;DHT22;16677;52.224;7.484;2023-09-18T07:14:30;20.40;99.90
29777;DHT22;16677;52.224;7.484;2023-09-18T07:16:57;20.40;1.00
29777;DHT22;16677;52.224;7.484;2023-09-18T07:19:25;20.40;99.90
29777;DHT22;16677;52.224;7.484;2023-09-18T07:21:53;20.50;99.90
29777;DHT22;16677;52.224;7.484;2023-09-18T07:24:20;20.50;99.90
29777;DHT22;16677;52.224;7.484;2023-09-18T07:26:48;20.70;99.90
29777;DHT22;16677;52.224;7.484;2023-09-18T07:29:15;20.70;1.00
29777;DHT22;16677;52.224;7.484;2023-09-18T07:31:43;20.70;1.00
29777;DHT22;16677;52.224;7.484;2023-09-18T07:34:11;20.80;1.00
29777;DHT22;16677;52.224;7.484;2023-09-18T07:36:40;20.90;99.90
29777;DHT22;16677;52.224;7.484;2023-09-18T07:39:07;20.90;99.90
29777;DHT22;16677;52.224;7.484;2023-09-18T07:41:34;20.80;99.90
29777;DHT22;16677;52.224;7.484;2023-09-18T07:44:02;20.90;99.90
29777;DHT22;16677;52.224;7.484;2023-09-18T07:46:29;20.90;99.90
29777;DHT22;16677;52.224;7.484;2023-09-18T07:48:56;20.90;99.90
29777;DHT22;16677;52.224;7.484;2023-09-18T07:51:23;20.90;73.00
29777;DHT22;16677;52.224;7.484;2023-09-18T07:53:50;20.90;1.00
29777;DHT22;16677;52.224;7.484;2023-09-18T07:56:17;21.00;1.00
29777;DHT22;16677;52.224;7.484;2023-09-18T07:58:46;21.00;1.00
29777;DHT22;16677;52.224;7.484;2023-09-18T08:01:14;21.00;1.00
29777;DHT22;16677;52.224;7.484;2023-09-18T08:03:43;21.00;1.00
29777;DHT22;16677;52.224;7.484;2023-09-18T08:06:10;21.20;99.90
29777;DHT22;16677;52.224;7.484;2023-09-18T08:08:38;21.20;99.90
29777;DHT22;16677;52.224;7.484;2023-09-18T08:11:09;21.30;99.90
29777;DHT22;16677;52.224;7.484;2023-09-18T08:13:37;21.40;99.90
29777;DHT22;16677;52.224;7.484;2023-09-18T08:16:07;21.60;99.90
29777;DHT22;16677;52.224;7.484;2023-09-18T08:18:35;21.60;99.90
29777;DHT22;16677;52.224;7.484;2023-09-18T08:21:09;21.60;96.50
29777;DHT22;16677;52.224;7.484;2023-09-18T08:23:37;21.70;1.00
29777;DHT22;16677;52.224;7.484;2023-09-18T08:26:05;21.80;1.00
29777;DHT22;16677;52.224;7.484;2023-09-18T08:28:32;21.80;1.00
29777;DHT22;16677;52.224;7.484;2023-09-18T08:31:00;22.00;1.00
29777;DHT22;16677;52.224;7.484;2023-09-18T08:33:28;22.20;1.00
29777;DHT22;16677;52.224;7.484;2023-09-18T08:35:55;21.90;1.00
29777;DHT22;16677;52.224;7.484;2023-09-18T08:38:22;21.90;1.00
29777;DHT22;16677;52.224;7.484;2023-09-18T08:40:49;21.90;1.00
29777;DHT22;16677;52.224;7.484;2023-09-18T08:43:18;22.00;1.00
29777;DHT22;16677;52.224;7.484;2023-09-18T08:48:16;21.90;1.00
29777;DHT22;16677;52.224;7.484;2023-09-18T08:50:45;21.90;1.00
29777;DHT22;16677;52.224;7.484;2023-09-18T08:53:12;21.70;1.00
29777;DHT22;16677;52.224;7.484;2023-09-18T08:55:39;21.90;1.00
29777;DHT22;16677;52.224;7.484;2023-09-18T08:58:07;21.90;1.00
29777;DHT22;16677;52.224;7.484;2023-09-18T09:00:37;21.80;1.00
29777;DHT22;16677;52.224;7.484;2023-09-18T09:03:04;21.80;1.00
29777;DHT22;16677;52.224;7.484;2023-09-18T09:05:32;21.70;1.00
29777;DHT22;16677;52.224;7.484;2023-09-18T09:07:59;21.50;1.00
29777;DHT22;16677;52.224;7.484;2023-09-18T09:10:28;21.40;1.00
29777;DHT22;16677;52.224;7.484;2023-09-18T09:12:57;21.50;1.00
29777;DHT22;16677;52.224;7.484;2023-09-18T09:15:47;21.50;1.00
29777;DHT22;16677;52.224;7.484;2023-09-18T09:18:15;21.50;1.00
29777;DHT22;16677;52.224;7.484;2023-09-18T09:20:55;21.40;1.00
29777;DHT22;16677;52.224;7.484;2023-09-18T09:23:25;21.40;1.00
29777;DHT22;16677;52.224;7.484;2023-09-18T09:25:53;21.50;1.00
29777;DHT22;16677;52.224;7.484;2023-09-18T09:28:30;21.70;1.00
29777;DHT22;16677;52.224;7.484;2023-09-18T09:31:01;21.90;1.00
29777;DHT22;16677;52.224;7.484;2023-09-18T09:33:32;22.10;1.00
29777;DHT22;16677;52.224;7.484;2023-09-18T09:36:00;22.10;1.00
29777;DHT22;16677;52.224;7.484;2023-09-18T09:38:31;22.10;1.00
29777;DHT22;16677;52.224;7.484;2023-09-18T09:41:01;22.20;1.00
29777;DHT22;16677;52.224;7.484;2023-09-18T09:43:31;22.30;1.00
29777;DHT22;16677;52.224;7.484;2023-09-18T09:46:01;22.20;1.00
29777;DHT22;16677;52.224;7.484;2023-09-18T09:48:29;22.20;1.00
29777;DHT22;16677;52.224;7.484;2023-09-18T09:51:00;21.80;1.00
29777;DHT22;16677;52.224;7.484;2023-09-18T09:53:45;21.80;1.00
29777;DHT22;16677;52.224;7.484;2023-09-18T09:56:14;21.90;1.00
29777;DHT22;16677;52.224;7.484;2023-09-18T09:58:41;22.10;1.00
29777;DHT22;16677;52.224;7.484;2023-09-18T10:01:12;22.10;1.00
29777;DHT22;16677;52.224;7.484;2023-09-18T10:03:45;22.10;1.00
29777;DHT22;16677;52.224;7.484;2023-09-18T10:06:14;22.00;1.00
29777;DHT22;16677;52.224;7.484;2023-09-18T10:08:41;21.90;1.00
29777;DHT22;16677;52.224;7.484;2023-09-18T10:11:10;21.90;1.00
29777;DHT22;16677;52.224;7.484;2023-09-18T10:13:59;22.10;1.00
29777;DHT22;16677;52.224;7.484;2023-09-18T10:16:28;22.20;1.00
29777;DHT22;16677;52.224;7.484;2023-09-18T10:24:46;22.20;1.00
29777;DHT22;16677;52.224;7.484;2023-09-18T10:27:14;22.00;1.00
29777;DHT22;16677;52.224;7.484;2023-09-18T10:29:43;22.10;1.00
29777;DHT22;16677;52.224;7.484;2023-09-18T10:32:11;22.60;1.00
29777;DHT22;16677;52.224;7.484;2023-09-18T10:34:41;22.80;99.90
29777;DHT22;16677;52.224;7.484;2023-09-18T10:37:10;22.80;99.90
29777;DHT22;16677;52.224;7.484;2023-09-18T10:39:39;22.60;1.00
29777;DHT22;16677;52.224;7.484;2023-09-18T10:42:09;22.70;99.90
29777;DHT22;16677;52.224;7.484;2023-09-18T10:44:37;22.80;99.90
29777;DHT22;16677;52.224;7.484;2023-09-18T10:47:09;22.90;99.90
29777;DHT22;16677;52.224;7.484;2023-09-18T10:49:37;22.60;99.90
29777;DHT22;16677;52.224;7.484;2023-09-18T10:52:05;22.70;99.90
29777;DHT22;16677;52.224;7.484;2023-09-18T10:54:32;22.50;99.90
29777;DHT22;16677;52.224;7.484;2023-09-18T10:57:01;22.50;99.90
29777;DHT22;16677;52.224;7.484;2023-09-18T10:59:29;22.60;99.90
29777;DHT22;16677;52.224;7.484;2023-09-18T11:02:03;22.60;99.90
29777;DHT22;16677;52.224;7.484;2023-09-18T11:04:33;22.50;99.90
29777;DHT22;16677;52.224;7.484;2023-09-18T11:07:03;22.60;99.90
29777;DHT22;16677;52.224;7.484;2023-09-18T11:09:40;22.50;99.90
29777;DHT22;16677;52.224;7.484;2023-09-18T11:12:09;22.50;99.90
29777;DHT22;16677;52.224;7.484;2023-09-18T11:14:56;22.60;99.90
29777;DHT22;16677;52.224;7.484;2023-09-18T11:17:38;22.60;99.90
29777;DHT22;16677;52.224;7.484;2023-09-18T11:20:16;22.60;99.90
29777;DHT22;16677;52.224;7.484;2023-09-18T11:22:58;22.90;99.90
29777;DHT22;16677;52.224;7.484;2023-09-18T11:25:45;22.70;99.90
29777;DHT22;16677;52.224;7.484;2023-09-18T11:28:16;22.60;99.90
29777;DHT22;16677;52.224;7.484;2023-09-18T11:30:57;22.90;99.90
29777;DHT22;16677;52.224;7.484;2023-09-18T11:36:01;22.90;99.90
29777;DHT22;16677;52.224;7.484;2023-09-18T11:38:30;23.20;99.90
29777;DHT22;16677;52.224;7.484;2023-09-18T11:40:57;23.20;99.90
29777;DHT22;16677;52.224;7.484;2023-09-18T11:43:27;23.40;99.90
29777;DHT22;16677;52.224;7.484;2023-09-18T11:45:59;23.40;99.90
29777;DHT22;16677;52.224;7.484;2023-09-18T11:48:28;23.50;99.90
29777;DHT22;16677;52.224;7.484;2023-09-18T11:50:58;23.60;99.90
29777;DHT22;16677;52.224;7.484;2023-09-18T11:53:28;23.50;99.90
29777;DHT22;16677;52.224;7.484;2023-09-18T11:55:56;23.60;99.90
29777;DHT22;16677;52.224;7.484;2023-09-18T11:58:24;23.60;99.90
29777;DHT22;16677;52.224;7.484;2023-09-18T12:00:51;23.70;99.90
29777;DHT22;16677;52.224;7.484;2023-09-18T12:03:22;23.70;99.90
29777;DHT22;16677;52.224;7.484;2023-09-18T12:06:02;23.60;99.90
29777;DHT22;16677;52.224;7.484;2023-09-18T12:08:32;23.70;99.90
29777;DHT22;16677;52.224;7.484;2023-09-18T12:11:00;23.90;99.90
29777;DHT22;16677;52.224;7.484;2023-09-18T12:13:32;23.80;99.90
29777;DHT22;16677;52.224;7.484;2023-09-18T12:16:00;23.60;99.90
29777;DHT22;16677;52.224;7.484;2023-09-18T12:18:29;23.70;99.90
29777;DHT22;16677;52.224;7.484;2023-09-18T12:23:26;23.30;99.90
29777;DHT22;16677;52.224;7.484;2023-09-18T12:25:59;23.30;99.90
29777;DHT22;16677;52.224;7.484;2023-09-18T12:28:27;23.30;99.90
29777;DHT22;16677;52.224;7.484;2023-09-18T12:30:58;23.40;99.90
29777;DHT22;16677;52.224;7.484;2023-09-18T12:33:26;23.60;99.90
29777;DHT22;16677;52.224;7.484;2023-09-18T12:35:53;23.90;99.90
29777;DHT22;16677;52.224;7.484;2023-09-18T12:38:20;23.60;99.90
29777;DHT22;16677;52.224;7.484;2023-09-18T12:40:52;23.80;99.90
29777;DHT22;16677;52.224;7.484;2023-09-18T12:43:20;23.80;99.90
29777;DHT22;16677;52.224;7.484;2023-09-18T12:45:50;23.80;99.90
29777;DHT22;16677;52.224;7.484;2023-09-18T12:48:18;24.00;99.90
29777;DHT22;16677;52.224;7.484;2023-09-18T12:50:45;23.60;99.90
29777;DHT22;16677;52.224;7.484;2023-09-18T12:53:14;23.80;99.90
29777;DHT22;16677;52.224;7.484;2023-09-18T12:55:42;23.70;99.90
29777;DHT22;16677;52.224;7.484;2023-09-18T12:58:12;23.70;99.90
29777;DHT22;16677;52.224;7.484;2023-09-18T13:00:50;23.80;99.90
29777;DHT22;16677;52.224;7.484;2023-09-18T13:03:17;23.80;99.90
29777;DHT22;16677;52.224;7.484;2023-09-18T13:05:45;23.80;99.90
29777;DHT22;16677;52.224;7.484;2023-09-18T13:08:14;23.90;99.90
29777;DHT22;16677;52.224;7.484;2023-09-18T13:10:50;24.10;99.90
29777;DHT22;16677;52.224;7.484;2023-09-18T13:13:18;24.20;99.90
29777;DHT22;16677;52.224;7.484;2023-09-18T13:15:46;24.40;99.90
29777;DHT22;16677;52.224;7.484;2023-09-18T13:18:16;24.40;99.90
29777;DHT22;16677;52.224;7.484;2023-09-18T13:20:43;24.50;99.90
29777;DHT22;16677;52.224;7.484;2023-09-18T13:23:12;24.40;99.90
29777;DHT22;16677;52.224;7.484;2023-09-18T13:25:40;24.40;99.90
29777;DHT22;16677;52.224;7.484;2023-09-18T13:28:11;24.60;99.90
29777;DHT22;16677;52.224;7.484;2023-09-18T13:30:40;24.20;99.90
29777;DHT22;16677;52.224;7.484;2023-09-18T13:33:13;24.30;99.90
29777;DHT22;16677;52.224;7.484;2023-09-18T13:35:44;24.60;99.90
29777;DHT22;16677;52.224;7.484;2023-09-18T13:38:12;24.50;99.90
29777;DHT22;16677;52.224;7.484;2023-09-18T13:40:41;24.20;99.90
29777;DHT22;16677;52.224;7.484;2023-09-18T13:43:09;24.20;99.90
29777;DHT22;16677;52.224;7.484;2023-09-18T13:45:36;24.30;99.90
29777;DHT22;16677;52.224;7.484;2023-09-18T13:48:05;24.00;99.90
29777;DHT22;16677;52.224;7.484;2023-09-18T13:50:34;24.20;99.90
29777;DHT22;16677;52.224;7.484;2023-09-18T13:53:02;24.40;99.90
29777;DHT22;16677;52.224;7.484;2023-09-18T13:55:32;24.60;99.90
29777;DHT22;16677;52.224;7.484;2023-09-18T13:57:59;24.50;99.90
29777;DHT22;16677;52.224;7.484;2023-09-18T14:00:26;24.50;99.90
29777;DHT22;16677;52.224;7.484;2023-09-18T14:02:53;24.60;99.90
29777;DHT22;16677;52.224;7.484;2023-09-18T14:05:21;24.50;99.90
29777;DHT22;16677;52.224;7.484;2023-09-18T14:07:48;24.50;99.90
29777;DHT22;16677;52.224;7.484;2023-09-18T14:10:15;24.60;99.90
29777;DHT22;16677;52.224;7.484;2023-09-18T14:12:44;24.60;99.90
29777;DHT22;16677;52.224;7.484;2023-09-18T14:15:11;24.70;99.90
29777;DHT22;16677;52.224;7.484;2023-09-18T14:17:39;24.70;99.90
29777;DHT22;16677;52.224;7.484;2023-09-18T14:20:06;24.60;99.90
29777;DHT22;16677;52.224;7.484;2023-09-18T14:22:34;24.40;99.90
29777;DHT22;16677;52.224;7.484;2023-09-18T14:25:02;24.60;99.90
29777;DHT22;16677;52.224;7.484;2023-09-18T14:27:32;24.60;99.90
29777;DHT22;16677;52.224;7.484;2023-09-18T14:30:00;24.80;99.90
29777;DHT22;16677;52.224;7.484;2023-09-18T14:32:29;24.70;99.90
29777;DHT22;16677;52.224;7.484;2023-09-18T14:34:56;24.60;99.90
29777;DHT22;16677;52.224;7.484;2023-09-18T14:37:25;24.50;99.90
29777;DHT22;16677;52.224;7.484;2023-09-18T14:39:52;24.50;99.90
29777;DHT22;16677;52.224;7.484;2023-09-18T14:42:19;24.50;99.90
29777;DHT22;16677;52.224;7.484;2023-09-18T14:44:46;24.60;99.90
29777;DHT22;16677;52.224;7.484;2023-09-18T14:47:14;24.60;99.90
29777;DHT22;16677;52.224;7.484;2023-09-18T14:49:49;24.60;99.90
29777;DHT22;16677;52.224;7.484;2023-09-18T14:52:16;24.60;99.90
29777;DHT22;16677;52.224;7.484;2023-09-18T14:54:43;24.60;99.90
29777;DHT22;16677;52.224;7.484;2023-09-18T14:57:10;24.40;99.90
29777;DHT22;16677;52.224;7.484;2023-09-18T14:59:38;24.50;99.90
29777;DHT22;16677;52.224;7.484;2023-09-18T15:02:08;24.40;99.90
29777;DHT22;16677;52.224;7.484;2023-09-18T15:04:35;24.30;99.90
29777;DHT22;16677;52.224;7.484;2023-09-18T15:07:03;24.30;99.90
29777;DHT22;16677;52.224;7.484;2023-09-18T15:09:30;24.30;99.90
29777;DHT22;16677;52.224;7.484;2023-09-18T15:11:58;24.50;99.90
29777;DHT22;16677;52.224;7.484;2023-09-18T15:14:25;24.40;99.90
29777;DHT22;16677;52.224;7.484;2023-09-18T15:16:52;24.10;99.90
29777;DHT22;16677;52.224;7.484;2023-09-18T15:19:19;24.10;99.90
29777;DHT22;16677;52.224;7.484;2023-09-18T15:21:46;24.10;99.90
29777;DHT22;16677;52.224;7.484;2023-09-18T15:24:14;24.30;99.90
29777;DHT22;16677;52.224;7.484;2023-09-18T15:26:41;24.20;99.90
29777;DHT22;16677;52.224;7.484;2023-09-18T15:29:08;24.10;99.90
29777;DHT22;16677;52.224;7.484;2023-09-18T15:31:36;24.30;99.90
29777;DHT22;16677;52.224;7.484;2023-09-18T15:34:03;24.40;99.90
29777;DHT22;16677;52.224;7.484;2023-09-18T15:36:30;24.40;99.90
29777;DHT22;16677;52.224;7.484;2023-09-18T15:38:59;24.40;99.90
29777;DHT22;16677;52.224;7.484;2023-09-18T15:41:27;24.40;99.90
29777;DHT22;16677;52.224;7.484;2023-09-18T15:43:56;24.40;99.90
29777;DHT22;16677;52.224;7.484;2023-09-18T15:46:23;24.40;99.90
29777;DHT22;16677;52.224;7.484;2023-09-18T15:48:50;24.50;99.90
29777;DHT22;16677;52.224;7.484;2023-09-18T15:51:17;24.70;99.90
29777;DHT22;16677;52.224;7.484;2023-09-18T15:53:45;24.60;99.90
29777;DHT22;16677;52.224;7.484;2023-09-18T15:56:12;24.80;99.90
29777;DHT22;16677;52.224;7.484;2023-09-18T15:58:40;24.80;99.90
29777;DHT22;16677;52.224;7.484;2023-09-18T16:01:07;24.80;99.90
29777;DHT22;16677;52.224;7.484;2023-09-18T16:03:38;24.90;99.90
29777;DHT22;16677;52.224;7.484;2023-09-18T16:06:07;25.20;99.90
29777;DHT22;16677;52.224;7.484;2023-09-18T16:08:36;25.20;99.90
29777;DHT22;16677;52.224;7.484;2023-09-18T16:11:04;25.00;99.90